createdAt,value
2018-08-20T00:00:47.414Z,12.03
2018-08-20T00:03:15.847Z,12.40
2018-08-20T00:05:48.503Z,16.20
2018-08-20T00:08:16.837Z,15.20
2018-08-20T00:10:45.188Z,13.93
2018-08-20T00:13:13.558Z,12.43
2018-08-20T00:15:41.928Z,12.87
2018-08-20T00:18:15.729Z,14.50
2018-08-20T00:20:44.032Z,18.90
2018-08-20T00:23:12.351Z,14.73
2018-08-20T00:25:40.692Z,16.20
2018-08-20T00:28:09.023Z,16.30
2018-08-20T00:30:37.373Z,14.33
2018-08-20T00:33:05.715Z,12.00
2018-08-20T00:35:34.004Z,13.70
2018-08-20T00:38:02.340Z,12.03
2018-08-20T00:40:30.884Z,12.60
2018-08-20T00:42:59.281Z,9.07
2018-08-20T00:45:27.631Z,13.13
2018-08-20T00:47:55.935Z,7.77
2018-08-20T00:50:24.308Z,10.13
2018-08-20T00:52:52.609Z,8.27
2018-08-20T00:55:20.933Z,10.33
2018-08-20T00:57:49.304Z,9.30
2018-08-20T01:00:17.648Z,7.67
2018-08-20T01:02:45.983Z,9.80
2018-08-20T01:05:14.363Z,9.53
2018-08-20T01:07:42.683Z,12.00
2018-08-20T01:10:11.056Z,11.73
2018-08-20T01:12:39.409Z,8.80
2018-08-20T01:15:07.748Z,10.47
2018-08-20T01:17:36.108Z,12.70
2018-08-20T01:20:04.578Z,10.90
2018-08-20T01:22:32.904Z,10.90
2018-08-20T01:25:01.249Z,9.90
2018-08-20T01:27:30.261Z,10.87
2018-08-20T01:29:58.644Z,9.67
2018-08-20T01:32:26.999Z,11.03
2018-08-20T01:34:59.811Z,9.60
2018-08-20T01:37:28.178Z,11.53
2018-08-20T01:39:56.516Z,14.67
2018-08-20T01:42:24.847Z,8.80
2018-08-20T01:44:53.192Z,10.77
2018-08-20T01:47:21.513Z,9.80
2018-08-20T01:49:49.834Z,11.63
2018-08-20T01:52:18.252Z,9.00
2018-08-20T01:54:46.584Z,8.97
2018-08-20T01:57:14.920Z,7.67
2018-08-20T01:59:43.319Z,8.40
2018-08-20T02:02:11.737Z,12.87
2018-08-20T02:04:40.083Z,8.43
2018-08-20T02:07:08.671Z,11.03
2018-08-20T02:09:37.319Z,7.73
2018-08-20T02:12:05.808Z,11.13
2018-08-20T02:14:34.216Z,10.00
2018-08-20T02:17:02.568Z,9.23
2018-08-20T02:19:30.927Z,10.43
2018-08-20T02:21:59.206Z,9.57
2018-08-20T02:24:27.531Z,10.03
2018-08-20T02:26:55.871Z,12.67
2018-08-20T02:29:24.223Z,11.33
2018-08-20T02:31:52.590Z,11.53
2018-08-20T02:34:21.642Z,9.83
2018-08-20T02:45:47.203Z,12.33
2018-08-20T02:48:16.041Z,14.00
2018-08-20T02:50:45.073Z,15.87
2018-08-20T02:53:14.070Z,14.37
2018-08-20T02:55:43.125Z,15.83
2018-08-20T02:58:12.262Z,16.23
2018-08-20T03:00:41.323Z,15.73
2018-08-20T03:03:10.570Z,17.67
2018-08-20T03:05:39.836Z,17.30
2018-08-20T03:08:08.870Z,18.80
2018-08-20T03:10:37.878Z,15.57
2018-08-20T03:13:06.833Z,17.83
2018-08-20T03:15:35.865Z,17.33
2018-08-20T03:18:04.985Z,15.90
2018-08-20T03:20:34.050Z,20.70
2018-08-20T03:23:02.993Z,16.83
2018-08-20T03:25:31.878Z,19.97
2018-08-20T03:28:00.596Z,18.60
2018-08-20T03:30:29.647Z,18.97
2018-08-20T03:32:58.146Z,27.13
2018-08-20T03:35:26.553Z,23.53
2018-08-20T03:37:55.259Z,26.87
2018-08-20T03:40:23.600Z,24.33
2018-08-20T03:42:51.953Z,24.47
2018-08-20T03:45:20.334Z,27.77
2018-08-20T03:47:48.665Z,30.47
2018-08-20T03:50:17.076Z,28.00
2018-08-20T03:52:46.086Z,25.70
2018-08-20T03:55:14.456Z,31.30
2018-08-20T03:57:43.034Z,31.47
2018-08-20T04:00:12.065Z,30.63
2018-08-20T04:02:40.420Z,28.40
2018-08-20T04:05:09.753Z,31.47
2018-08-20T04:07:38.074Z,31.90
2018-08-20T04:10:06.464Z,34.80
2018-08-20T04:12:34.830Z,37.13
2018-08-20T04:15:03.193Z,33.20
2018-08-20T04:17:31.535Z,36.30
2018-08-20T04:19:59.932Z,39.50
2018-08-20T04:23:57.716Z,35.50
2018-08-20T04:26:26.125Z,35.50
2018-08-20T04:28:54.496Z,37.60
2018-08-20T04:31:22.861Z,37.07
2018-08-20T04:33:51.247Z,43.93
2018-08-20T04:36:19.636Z,39.60
2018-08-20T04:38:48.108Z,40.80
2018-08-20T04:41:16.509Z,36.97
2018-08-20T04:43:44.880Z,33.23
2018-08-20T04:46:13.229Z,47.80
2018-08-20T04:48:41.624Z,46.67
2018-08-20T04:51:10.276Z,39.83
2018-08-20T04:53:38.468Z,42.90
2018-08-20T04:56:06.808Z,42.20
2018-08-20T04:58:35.178Z,41.20
2018-08-20T05:01:03.537Z,44.97
2018-08-20T05:03:31.901Z,41.10
2018-08-20T05:06:00.253Z,44.23
2018-08-20T05:08:28.649Z,36.73
2018-08-20T05:10:57.029Z,40.33
2018-08-20T05:13:25.384Z,38.27
2018-08-20T05:15:53.714Z,42.80
2018-08-20T05:18:22.059Z,47.23
2018-08-20T05:20:50.448Z,38.63
2018-08-20T05:23:18.813Z,44.97
2018-08-20T05:25:47.141Z,45.57
2018-08-20T05:28:15.481Z,45.93
2018-08-20T05:30:43.864Z,42.10
2018-08-20T05:33:12.264Z,38.37
2018-08-20T05:35:40.583Z,44.13
2018-08-20T05:38:08.908Z,41.27
2018-08-20T05:40:37.245Z,45.07
2018-08-20T05:43:05.997Z,43.37
2018-08-20T05:45:34.388Z,44.63
2018-08-20T05:48:02.681Z,46.90
2018-08-20T05:50:31.120Z,40.90
2018-08-20T05:52:59.477Z,53.70
2018-08-20T05:55:27.921Z,46.10
2018-08-20T05:57:58.003Z,44.27
2018-08-20T06:00:26.370Z,46.00
2018-08-20T06:02:54.707Z,46.90
2018-08-20T06:05:23.053Z,42.63
2018-08-20T06:07:51.446Z,46.93
2018-08-20T06:10:19.782Z,41.40
2018-08-20T06:12:48.263Z,49.63
2018-08-20T06:15:16.683Z,42.47
2018-08-20T06:17:44.978Z,48.03
2018-08-20T06:20:16.734Z,43.53
2018-08-20T06:22:45.452Z,46.20
2018-08-20T06:25:14.348Z,42.13
2018-08-20T06:27:43.119Z,47.90
2018-08-20T06:30:14.636Z,46.73
2018-08-20T06:32:43.042Z,45.87
2018-08-20T06:35:11.953Z,44.30
2018-08-20T06:37:40.424Z,47.03
2018-08-20T06:40:12.033Z,42.63
2018-08-20T06:42:40.427Z,44.50
2018-08-20T06:45:14.856Z,43.63
2018-08-20T06:47:43.926Z,46.87
2018-08-20T06:50:12.497Z,47.67
2018-08-20T06:52:41.908Z,48.60
2018-08-20T06:55:10.281Z,41.87
2018-08-20T06:57:38.614Z,47.63
2018-08-20T07:00:08.490Z,43.50
2018-08-20T07:02:37.755Z,42.67
2018-08-20T07:05:06.914Z,41.87
2018-08-20T07:07:35.853Z,40.37
2018-08-20T07:10:04.983Z,38.73
2018-08-20T07:12:33.330Z,37.13
2018-08-20T07:15:01.677Z,37.53
2018-08-20T07:17:30.068Z,34.23
2018-08-20T07:19:58.452Z,30.47
2018-08-20T07:22:27.528Z,31.97
2018-08-20T07:24:55.882Z,34.23
2018-08-20T07:27:24.251Z,37.83
2018-08-20T07:29:52.700Z,26.63
2018-08-20T07:32:21.059Z,29.13
2018-08-20T07:34:49.427Z,33.27
2018-08-20T07:37:20.589Z,30.33
2018-08-20T07:39:49.094Z,32.93
2018-08-20T07:42:17.497Z,28.73
2018-08-20T07:44:46.730Z,28.40
2018-08-20T07:47:15.072Z,26.63
2018-08-20T07:49:43.501Z,24.37
2018-08-20T07:52:13.418Z,21.20
2018-08-20T07:54:42.412Z,28.63
2018-08-20T07:57:10.998Z,24.83
2018-08-20T07:59:39.517Z,20.23
2018-08-20T08:02:08.408Z,23.70
2018-08-20T08:04:36.781Z,21.10
2018-08-20T08:07:05.218Z,18.53
2018-08-20T08:09:33.584Z,18.80
2018-08-20T08:12:02.004Z,23.10
2018-08-20T08:14:30.457Z,18.70
2018-08-20T08:16:59.580Z,16.57
2018-08-20T08:19:28.019Z,16.17
2018-08-20T08:21:56.414Z,14.00
2018-08-20T08:24:24.831Z,11.50
2018-08-20T08:26:53.199Z,11.90
2018-08-20T08:29:21.562Z,10.67
2018-08-20T08:31:50.700Z,10.87
2018-08-20T08:34:20.199Z,11.87
2018-08-20T08:36:48.613Z,13.37
2018-08-20T08:39:16.992Z,14.77
2018-08-20T08:41:45.381Z,8.57
2018-08-20T08:44:14.000Z,11.20
2018-08-20T08:46:42.412Z,10.47
2018-08-20T08:49:10.796Z,13.03
2018-08-20T08:51:39.216Z,15.83
2018-08-20T08:54:07.559Z,10.37
2018-08-20T08:56:35.945Z,10.47
2018-08-20T08:59:04.390Z,11.70
2018-08-20T09:01:32.813Z,12.07
2018-08-20T09:04:01.168Z,10.27
2018-08-20T09:06:29.512Z,10.83
2018-08-20T09:08:57.921Z,10.93
2018-08-20T09:11:26.293Z,8.43
2018-08-20T09:13:54.725Z,11.13
2018-08-20T09:16:23.024Z,7.73
2018-08-20T09:18:51.434Z,8.70
2018-08-20T09:21:19.803Z,8.87
2018-08-20T09:23:48.156Z,6.87
2018-08-20T09:26:16.501Z,7.47
2018-08-20T09:28:44.868Z,7.20
2018-08-20T09:31:13.204Z,7.07
2018-08-20T09:33:41.636Z,9.37
2018-08-20T09:36:10.006Z,8.53
2018-08-20T09:38:38.403Z,6.30
2018-08-20T09:41:06.841Z,5.90
2018-08-20T09:43:36.960Z,7.30
2018-08-20T09:46:05.315Z,7.37
2018-08-20T09:48:33.649Z,8.90
2018-08-20T09:51:02.024Z,11.70
2018-08-20T09:53:30.376Z,8.53
2018-08-20T09:55:58.739Z,8.77
2018-08-20T09:58:27.085Z,7.17
2018-08-20T10:00:55.455Z,6.33
2018-08-20T10:03:23.834Z,7.10
2018-08-20T10:05:52.220Z,7.87
2018-08-20T10:08:20.531Z,7.87
2018-08-20T10:10:48.853Z,4.47
2018-08-20T10:13:17.157Z,6.20
2018-08-20T10:15:45.546Z,5.50
2018-08-20T10:18:13.957Z,5.17
2018-08-20T10:20:42.964Z,5.23
2018-08-20T10:23:11.293Z,8.17
2018-08-20T10:25:40.473Z,7.57
2018-08-20T10:28:09.546Z,7.20
2018-08-20T10:30:39.426Z,4.40
2018-08-20T10:33:07.763Z,6.27
2018-08-20T10:35:38.606Z,5.07
2018-08-20T10:38:07.943Z,8.87
2018-08-20T10:40:36.965Z,5.13
2018-08-20T10:43:05.917Z,6.27
2018-08-20T10:45:39.705Z,5.07
2018-08-20T10:48:08.044Z,4.77
2018-08-20T10:50:36.424Z,7.33
2018-08-20T10:53:06.712Z,9.13
2018-08-20T10:55:35.066Z,5.23
2018-08-20T10:58:03.425Z,9.07
2018-08-20T11:00:31.741Z,7.00
2018-08-20T11:03:00.075Z,4.50
2018-08-20T11:05:28.382Z,4.30
2018-08-20T11:07:58.026Z,4.17
2018-08-20T11:11:55.820Z,8.47
2018-08-20T11:14:24.128Z,6.03
2018-08-20T11:16:52.463Z,6.00
2018-08-20T11:19:20.785Z,3.43
2018-08-20T11:21:49.104Z,6.00
2018-08-20T11:24:17.422Z,10.97
2018-08-20T11:26:45.730Z,6.23
2018-08-20T11:29:14.080Z,6.30
2018-08-20T11:31:42.414Z,3.90
2018-08-20T11:34:10.817Z,5.57
2018-08-20T11:36:39.151Z,6.20
2018-08-20T11:39:07.995Z,4.63
2018-08-20T11:41:36.307Z,5.70
2018-08-20T11:44:05.297Z,3.60
2018-08-20T11:46:33.652Z,3.30
2018-08-20T11:49:02.049Z,4.87
2018-08-20T11:51:30.444Z,7.20
2018-08-20T11:53:58.797Z,4.23
2018-08-20T11:56:27.134Z,3.57
2018-08-20T11:58:55.498Z,4.07
2018-08-20T12:01:23.878Z,3.40
2018-08-20T12:03:54.272Z,4.30
2018-08-20T12:06:23.108Z,6.93
2018-08-20T12:08:52.006Z,3.90
2018-08-20T12:11:20.368Z,4.77
2018-08-20T12:13:49.388Z,4.67
2018-08-20T12:16:17.686Z,4.43
2018-08-20T12:18:46.045Z,4.60
2018-08-20T12:21:14.413Z,2.97
2018-08-20T12:23:43.715Z,4.80
2018-08-20T12:26:12.062Z,4.00
2018-08-20T12:28:40.405Z,4.77
2018-08-20T12:31:08.826Z,4.57
2018-08-20T12:33:37.213Z,3.20
2018-08-20T12:36:05.585Z,5.90
2018-08-20T12:38:34.087Z,4.03
2018-08-20T12:41:02.468Z,4.13
2018-08-20T12:43:30.829Z,7.47
2018-08-20T12:45:59.236Z,5.77
2018-08-20T12:48:27.535Z,4.03
2018-08-20T12:50:56.993Z,2.63
2018-08-20T12:53:25.394Z,3.17
2018-08-20T12:55:53.745Z,3.97
2018-08-20T12:58:22.222Z,3.37
2018-08-20T13:00:50.525Z,9.33
2018-08-20T13:03:18.892Z,5.03
2018-08-20T13:05:47.249Z,5.07
2018-08-20T13:08:15.630Z,6.87
2018-08-20T13:10:44.075Z,4.67
2018-08-20T13:13:12.571Z,2.77
2018-08-20T13:15:40.922Z,4.50
2018-08-20T13:18:09.416Z,4.77
2018-08-20T13:20:37.756Z,3.60
2018-08-20T13:23:06.580Z,2.63
2018-08-20T13:25:34.934Z,3.60
2018-08-20T13:28:03.612Z,2.27
2018-08-20T13:30:32.007Z,3.20
2018-08-20T13:33:00.320Z,3.57
2018-08-20T13:35:28.733Z,3.77
2018-08-20T13:37:57.104Z,2.77
2018-08-20T13:40:25.476Z,1.87
2018-08-20T13:42:53.890Z,3.53
2018-08-20T13:45:22.250Z,3.03
2018-08-20T13:47:50.573Z,2.10
2018-08-20T13:50:19.000Z,3.37
2018-08-20T13:52:47.861Z,1.90
2018-08-20T13:55:16.226Z,2.87
2018-08-20T13:57:47.802Z,2.37
2018-08-20T14:00:17.696Z,2.80
2018-08-20T14:02:46.120Z,2.23
2018-08-20T14:05:15.510Z,2.23
2018-08-20T14:07:43.963Z,3.73
2018-08-20T14:10:12.463Z,2.67
2018-08-20T14:12:41.572Z,3.97
2018-08-20T14:15:11.094Z,4.40
2018-08-20T14:17:40.306Z,3.10
2018-08-20T14:20:10.921Z,4.23
2018-08-20T14:22:39.602Z,3.57
2018-08-20T14:25:08.089Z,4.53
2018-08-20T14:27:36.457Z,4.47
2018-08-20T14:30:07.975Z,4.60
2018-08-20T14:32:36.388Z,4.57
2018-08-20T14:35:06.409Z,3.93
2018-08-20T14:37:34.774Z,4.07
2018-08-20T14:40:03.407Z,6.37
2018-08-20T14:42:32.135Z,2.40
2018-08-20T14:45:00.612Z,3.53
2018-08-20T14:47:29.042Z,2.80
2018-08-20T14:49:57.668Z,1.63
2018-08-20T14:52:26.114Z,2.43
2018-08-20T14:54:54.529Z,2.63
2018-08-20T14:57:22.913Z,3.37
2018-08-20T14:59:51.339Z,4.63
2018-08-20T15:02:19.794Z,3.77
2018-08-20T15:04:48.188Z,2.93
2018-08-20T15:07:16.504Z,2.97
2018-08-20T15:09:44.866Z,2.77
2018-08-20T15:12:13.159Z,1.87
2018-08-20T15:14:41.523Z,2.33
2018-08-20T15:17:09.933Z,1.70
2018-08-20T15:19:38.285Z,1.93
2018-08-20T15:22:06.632Z,1.47
2018-08-20T15:24:35.048Z,2.07
2018-08-20T15:27:03.761Z,2.47
2018-08-20T15:29:32.149Z,1.77
2018-08-20T15:32:00.501Z,2.70
2018-08-20T15:34:28.869Z,2.00
2018-08-20T15:36:57.293Z,2.10
2018-08-20T15:39:25.673Z,1.80
2018-08-20T15:41:54.025Z,1.63
2018-08-20T15:44:22.416Z,1.43
2018-08-20T15:46:50.796Z,1.63
2018-08-20T15:49:19.103Z,1.97
2018-08-20T15:51:47.405Z,2.97
2018-08-20T15:54:15.805Z,1.73
2018-08-20T15:56:44.141Z,1.90
2018-08-20T15:59:12.476Z,3.17
2018-08-20T16:01:40.828Z,3.30
2018-08-20T16:04:09.160Z,2.80
2018-08-20T16:06:37.634Z,2.90
2018-08-20T16:09:07.632Z,2.90
2018-08-20T16:11:35.996Z,3.20
2018-08-20T16:14:04.393Z,4.07
2018-08-20T16:16:32.775Z,2.67
2018-08-20T16:19:01.145Z,1.63
2018-08-20T16:21:29.525Z,2.40
2018-08-20T16:23:57.900Z,3.47
2018-08-20T16:26:26.289Z,3.63
2018-08-20T16:28:54.658Z,4.07
2018-08-20T16:31:23.005Z,2.03
2018-08-20T16:33:51.714Z,8.40
2018-08-20T16:36:20.039Z,3.77
2018-08-20T16:38:48.372Z,3.93
2018-08-20T16:41:16.797Z,3.80
2018-08-20T16:43:45.247Z,2.87
2018-08-20T16:46:13.641Z,4.10
2018-08-20T16:48:42.887Z,3.40
2018-08-20T16:51:11.278Z,3.13
2018-08-20T16:53:39.791Z,4.73
2018-08-20T16:56:08.264Z,4.50
2018-08-20T16:58:36.971Z,4.00
2018-08-20T17:01:06.538Z,3.30
2018-08-20T17:03:34.965Z,5.13
2018-08-20T17:06:03.306Z,2.90
2018-08-20T17:08:32.438Z,2.63
2018-08-20T17:11:01.125Z,3.87
2018-08-20T17:13:30.127Z,2.30
2018-08-20T17:15:58.525Z,2.80
2018-08-20T17:18:27.181Z,3.23
2018-08-20T17:20:55.660Z,3.27
2018-08-20T17:23:24.977Z,2.37
2018-08-20T17:25:55.576Z,2.20
2018-08-20T17:28:25.172Z,2.60
2018-08-20T17:30:56.056Z,2.30
2018-08-20T17:33:24.528Z,1.83
2018-08-20T17:35:52.924Z,2.57
2018-08-20T17:38:21.277Z,4.70
2018-08-20T17:40:49.707Z,1.67
2018-08-20T17:43:18.018Z,5.47
2018-08-20T17:45:46.414Z,4.90
2018-08-20T17:48:19.486Z,5.53
2018-08-20T17:50:48.180Z,2.97
2018-08-20T17:53:16.495Z,2.43
2018-08-20T17:55:44.905Z,4.47
2018-08-20T17:58:14.221Z,4.77
2018-08-20T18:00:46.792Z,8.37
2018-08-20T18:03:22.052Z,2.00
2018-08-20T18:05:55.099Z,2.77
2018-08-20T18:08:24.730Z,3.13
2018-08-20T18:10:53.092Z,3.80
2018-08-20T18:13:34.079Z,4.37
2018-08-20T18:16:04.632Z,1.67
2018-08-20T18:18:33.711Z,4.27
2018-08-20T18:21:02.030Z,2.97
2018-08-20T18:23:31.961Z,3.30
2018-08-20T18:26:00.310Z,1.63
2018-08-20T18:28:29.009Z,1.83
2018-08-20T18:31:02.707Z,3.10
2018-08-20T18:33:31.200Z,1.97
2018-08-20T18:36:03.913Z,3.13
2018-08-20T18:38:33.166Z,2.17
2018-08-20T18:41:01.512Z,3.67
2018-08-20T18:43:30.021Z,2.90
2018-08-20T18:45:58.385Z,1.30
2018-08-20T18:48:31.006Z,3.57
2018-08-20T18:50:59.426Z,1.63
2018-08-20T18:53:32.648Z,3.30
2018-08-20T18:56:03.822Z,2.57
2018-08-20T18:58:32.676Z,2.43
2018-08-20T19:01:01.195Z,3.53
2018-08-20T19:03:39.014Z,2.07
2018-08-20T19:06:07.391Z,3.50
2018-08-20T19:08:36.508Z,1.30
2018-08-20T19:11:04.901Z,3.27
2018-08-20T19:13:33.381Z,2.23
2018-08-20T19:16:02.449Z,1.23
2018-08-20T19:18:37.063Z,3.50
2018-08-20T19:21:12.351Z,1.33
2018-08-20T19:23:40.850Z,2.23
2018-08-20T19:26:09.234Z,1.73
2018-08-20T19:28:37.636Z,2.13
2018-08-20T19:31:06.613Z,1.40
2018-08-20T19:33:35.067Z,2.83
2018-08-20T19:36:03.499Z,1.47
2018-08-20T19:38:31.906Z,3.33
2018-08-20T19:41:08.717Z,1.73
2018-08-20T19:43:42.380Z,2.20
2018-08-20T19:46:10.757Z,1.93
2018-08-20T19:48:39.103Z,2.30
2018-08-20T19:51:09.355Z,4.00
2018-08-20T19:53:37.726Z,1.30
2018-08-20T19:56:10.801Z,2.27
2018-08-20T19:58:41.382Z,2.97
2018-08-20T20:01:11.865Z,1.00
2018-08-20T20:03:42.741Z,1.73
2018-08-20T20:06:11.072Z,3.40
2018-08-20T20:08:40.029Z,2.77
2018-08-20T20:11:17.446Z,1.20
2018-08-20T20:13:46.894Z,1.27
2018-08-20T20:16:15.267Z,1.37
2018-08-20T20:18:43.597Z,1.67
2018-08-20T20:21:12.032Z,1.27
2018-08-20T20:23:40.467Z,3.47
2018-08-20T20:26:09.540Z,2.10
2018-08-20T20:28:37.957Z,2.17
2018-08-20T20:31:06.553Z,2.30
2018-08-20T20:33:35.699Z,1.20
2018-08-20T20:36:08.228Z,1.10
2018-08-20T20:38:36.698Z,1.63
2018-08-20T20:41:05.759Z,1.57
2018-08-20T20:43:36.392Z,2.23
2018-08-20T20:46:05.597Z,2.23
2018-08-20T20:48:34.049Z,1.20
2018-08-20T20:51:02.474Z,3.03
2018-08-20T20:53:30.847Z,1.57
2018-08-20T20:55:59.205Z,1.80
2018-08-20T20:58:35.381Z,2.43
2018-08-20T21:01:08.146Z,3.23
2018-08-20T21:03:36.720Z,1.73
2018-08-20T21:06:05.873Z,2.50
2018-08-20T21:08:40.066Z,2.43
2018-08-20T21:11:09.663Z,2.10
2018-08-20T21:13:38.100Z,3.67
2018-08-20T21:16:07.807Z,2.13
2018-08-20T21:18:42.672Z,2.00
2018-08-20T21:21:11.056Z,4.23
2018-08-20T21:23:40.504Z,3.00
2018-08-20T21:26:09.268Z,5.23
2018-08-20T21:28:44.156Z,2.23
2018-08-20T21:31:13.284Z,4.10
2018-08-20T21:33:42.445Z,2.80
2018-08-20T21:36:11.370Z,3.43
2018-08-20T21:38:39.749Z,2.90
2018-08-20T21:41:08.187Z,3.17
2018-08-20T21:43:42.012Z,3.70
2018-08-20T21:46:10.870Z,1.73
2018-08-20T21:48:39.706Z,2.47
2018-08-20T21:51:11.378Z,3.10
2018-08-20T21:53:39.846Z,4.67
2018-08-20T21:56:10.385Z,3.37
2018-08-20T21:58:40.299Z,2.73
2018-08-20T22:01:10.379Z,2.83
2018-08-20T22:03:38.972Z,3.83
2018-08-20T22:06:07.383Z,2.93
2018-08-20T22:08:36.047Z,2.27
2018-08-20T22:11:04.609Z,3.00
2018-08-20T22:13:33.061Z,3.10
2018-08-20T22:16:12.023Z,4.10
2018-08-20T22:18:41.590Z,3.83
2018-08-20T22:21:13.322Z,3.67
2018-08-20T22:23:42.443Z,3.70
2018-08-20T22:26:15.086Z,5.83
2018-08-20T22:28:43.587Z,4.57
2018-08-20T22:31:12.134Z,3.67
2018-08-20T22:33:40.538Z,4.93
2018-08-20T22:36:12.780Z,5.47
2018-08-20T22:38:49.289Z,5.03
2018-08-20T22:41:18.849Z,3.57
2018-08-20T22:43:47.483Z,3.97
2018-08-20T22:46:16.049Z,4.40
2018-08-20T22:48:44.508Z,5.17
2018-08-20T22:51:16.959Z,6.33
2018-08-20T22:53:48.540Z,4.37
2018-08-20T22:56:23.909Z,4.83
2018-08-20T22:58:52.543Z,7.53
2018-08-20T23:01:20.964Z,6.37
2018-08-20T23:03:49.320Z,4.83
2018-08-20T23:06:17.663Z,8.13
2018-08-20T23:08:46.073Z,7.57
2018-08-20T23:11:14.457Z,6.63
2018-08-20T23:13:42.863Z,5.40
2018-08-20T23:16:11.170Z,8.63
2018-08-20T23:18:39.514Z,7.60
2018-08-20T23:21:07.897Z,7.30
2018-08-20T23:23:37.225Z,9.77
2018-08-20T23:26:08.174Z,8.93
2018-08-20T23:28:38.406Z,9.27
2018-08-20T23:31:06.825Z,5.53
2018-08-20T23:33:38.952Z,7.23
2018-08-20T23:36:08.914Z,6.63
2018-08-20T23:38:37.350Z,5.70
2018-08-20T23:41:05.769Z,6.87
2018-08-20T23:43:34.168Z,6.27
2018-08-20T23:46:02.490Z,5.73
2018-08-20T23:48:30.776Z,5.70
2018-08-20T23:51:04.320Z,8.63
2018-08-20T23:53:32.613Z,6.93
2018-08-20T23:56:00.936Z,9.50
2018-08-20T23:58:29.216Z,6.90
